Time;durP1;ratioP1;P1;durP2;ratioP2;P2;SDS_P1;SDS_P2;PMS_P1;PMS_P2;Temp;Humidity;BMP_temperature;BMP_pressure;BME280_temperature;BME280_humidity;BME280_pressure;Samples;Min_cycle;Max_cycle;Signal;HPM_P1;HPM_P2
2023/09/29 00:01:43;;;;;;;6.72;2.80;;;17.60;99.90;;;;;;5043994;28;20106;-77
2023/09/29 00:04:10;;;;;;;4.05;2.67;;;17.60;99.90;;;;;;5031591;28;20053;-77
2023/09/29 00:06:37;;;;;;;5.30;2.50;;;17.60;99.90;;;;;;5051398;28;20484;-77
2023/09/29 00:09:07;;;;;;;3.58;2.22;;;17.60;99.90;;;;;;5034507;28;20068;-78
2023/09/29 00:11:34;;;;;;;3.80;2.03;;;17.60;99.90;;;;;;5048131;28;20045;-77
2023/09/29 00:14:01;;;;;;;4.35;2.30;;;17.60;99.90;;;;;;5039675;28;20524;-77
2023/09/29 00:16:28;;;;;;;4.68;2.28;;;17.50;99.90;;;;;;5027929;28;20049;-77
2023/09/29 00:18:55;;;;;;;3.85;2.47;;;17.50;99.90;;;;;;5034616;28;20056;-77
2023/09/29 00:21:22;;;;;;;5.88;2.42;;;17.50;99.90;;;;;;5047914;28;20052;-77
2023/09/29 00:23:49;;;;;;;4.93;2.08;;;17.50;99.90;;;;;;5046083;28;20057;-77
2023/09/29 00:26:16;;;;;;;3.50;2.33;;;17.50;99.90;;;;;;5045004;28;20046;-77
2023/09/29 00:28:44;;;;;;;3.15;2.28;;;17.50;99.90;;;;;;5040095;28;20053;-77
2023/09/29 00:31:11;;;;;;;3.45;2.25;;;17.50;99.90;;;;;;5045989;28;20049;-77
2023/09/29 00:33:38;;;;;;;4.10;2.10;;;17.50;99.90;;;;;;5035612;28;20045;-77
2023/09/29 00:36:05;;;;;;;5.05;2.40;;;17.50;99.90;;;;;;5032357;28;20103;-77
2023/09/29 00:38:33;;;;;;;2.60;1.88;;;17.50;99.90;;;;;;5050909;28;20119;-77
2023/09/29 00:41:01;;;;;;;3.03;2.38;;;17.50;99.90;;;;;;5049122;28;20435;-77
2023/09/29 00:43:28;;;;;;;7.97;3.47;;;17.50;99.90;;;;;;5037720;28;20088;-77
2023/09/29 00:45:55;;;;;;;5.47;2.40;;;17.40;99.90;;;;;;5046354;28;20080;-77
2023/09/29 00:48:22;;;;;;;4.40;2.63;;;17.40;99.90;;;;;;5040428;28;20084;-77
2023/09/29 00:50:50;;;;;;;5.03;2.20;;;17.40;99.90;;;;;;5051100;28;20053;-77
2023/09/29 00:53:19;;;;;;;3.97;2.08;;;17.40;99.90;;;;;;5048293;28;20136;-77
2023/09/29 00:55:48;;;;;;;3.42;2.28;;;17.30;99.90;;;;;;5046869;28;20055;-77
2023/09/29 00:58:15;;;;;;;4.13;2.60;;;17.30;99.90;;;;;;5041296;28;20124;-77
2023/09/29 01:00:42;;;;;;;5.20;2.88;;;17.30;99.90;;;;;;5050263;28;20076;-77
2023/09/29 01:03:14;;;;;;;4.93;2.50;;;17.20;99.90;;;;;;5046109;28;20042;-77
2023/09/29 01:05:49;;;;;;;4.70;2.42;;;17.20;99.90;;;;;;5054884;28;20045;-77
2023/09/29 01:08:20;;;;;;;6.57;2.53;;;17.20;99.90;;;;;;5047740;28;20152;-77
2023/09/29 01:10:47;;;;;;;4.18;2.50;;;17.10;99.90;;;;;;5048154;28;20044;-77
2023/09/29 01:13:15;;;;;;;5.15;2.72;;;17.10;99.90;;;;;;5040527;28;20052;-77
2023/09/29 01:15:42;;;;;;;8.00;3.20;;;17.10;99.90;;;;;;5049131;28;20089;-77
2023/09/29 01:18:09;;;;;;;2.95;2.17;;;17.00;99.90;;;;;;5045273;28;20596;-77
2023/09/29 01:20:40;;;;;;;4.05;2.20;;;17.00;99.90;;;;;;5052884;28;20049;-77
2023/09/29 01:23:08;;;;;;;5.40;2.53;;;17.00;99.90;;;;;;5046802;28;20053;-77
2023/09/29 01:25:36;;;;;;;3.75;2.60;;;16.90;99.90;;;;;;5050473;28;20515;-77
2023/09/29 01:28:07;;;;;;;3.90;2.30;;;16.90;99.90;;;;;;5038844;28;20111;-77
2023/09/29 01:30:36;;;;;;;7.00;2.72;;;16.90;99.90;;;;;;5048047;28;20068;-77
2023/09/29 01:33:03;;;;;;;3.75;2.70;;;16.90;99.90;;;;;;5049695;28;20044;-77
2023/09/29 01:35:30;;;;;;;8.18;2.33;;;16.80;99.90;;;;;;5051763;28;20037;-77
2023/09/29 01:38:00;;;;;;;5.40;2.65;;;16.80;99.90;;;;;;5044977;28;20099;-77
2023/09/29 01:40:28;;;;;;;3.47;2.20;;;16.80;99.90;;;;;;5048059;28;20560;-77
2023/09/29 01:42:56;;;;;;;3.05;2.35;;;16.80;99.90;;;;;;5043120;28;20464;-77
2023/09/29 01:45:25;;;;;;;5.95;2.88;;;16.80;99.90;;;;;;5046321;28;20052;-77
2023/09/29 01:47:53;;;;;;;6.70;2.78;;;16.70;99.90;;;;;;5051544;28;20041;-77
2023/09/29 01:50:21;;;;;;;3.65;2.38;;;16.70;99.90;;;;;;5050119;28;20410;-77
2023/09/29 01:52:49;;;;;;;6.03;2.35;;;16.70;99.90;;;;;;5044700;28;20444;-77
2023/09/29 01:55:20;;;;;;;9.10;3.00;;;16.70;99.90;;;;;;5045330;28;20045;-77
2023/09/29 01:57:48;;;;;;;4.95;2.63;;;16.60;99.90;;;;;;5037936;28;20452;-77
2023/09/29 02:00:23;;;;;;;5.55;2.65;;;16.60;99.90;;;;;;5048608;28;20522;-77
2023/09/29 02:02:53;;;;;;;4.57;2.75;;;16.60;99.90;;;;;;5048486;28;20152;-77
2023/09/29 02:05:20;;;;;;;3.97;2.53;;;16.60;99.90;;;;;;5048302;28;20057;-77
2023/09/29 02:07:49;;;;;;;4.40;2.35;;;16.60;99.90;;;;;;5044032;28;20083;-77
2023/09/29 02:10:20;;;;;;;4.80;3.08;;;16.50;99.90;;;;;;5045302;28;20042;-77
2023/09/29 02:12:53;;;;;;;5.13;2.80;;;16.50;99.90;;;;;;5041495;28;20091;-77
2023/09/29 02:15:19;;;;;;;4.13;2.58;;;16.50;99.90;;;;;;5047796;28;20045;-77
2023/09/29 02:17:49;;;;;;;5.60;2.33;;;16.50;99.90;;;;;;5053373;28;20488;-77
2023/09/29 02:20:18;;;;;;;3.40;2.40;;;16.40;99.90;;;;;;5027254;28;20095;-77
2023/09/29 02:22:45;;;;;;;4.40;3.20;;;16.40;99.90;;;;;;5046207;28;20418;-77
2023/09/29 02:25:15;;;;;;;4.63;2.88;;;16.40;99.90;;;;;;5044978;28;20292;-77
2023/09/29 02:27:42;;;;;;;5.82;2.50;;;16.40;99.90;;;;;;5039174;28;20041;-77
2023/09/29 02:30:11;;;;;;;4.10;2.60;;;16.30;99.90;;;;;;5051163;28;20051;-77
2023/09/29 02:32:40;;;;;;;3.80;2.58;;;16.30;99.90;;;;;;5050698;28;20406;-77
2023/09/29 02:35:08;;;;;;;5.63;3.17;;;16.30;99.90;;;;;;5044538;28;20045;-77
2023/09/29 02:37:36;;;;;;;4.05;2.50;;;16.30;99.90;;;;;;5025579;28;20049;-77
2023/09/29 02:40:06;;;;;;;4.18;2.60;;;16.20;99.90;;;;;;5044984;28;20088;-77
2023/09/29 02:42:33;;;;;;;2.85;2.38;;;16.20;99.90;;;;;;5038166;28;20128;-77
2023/09/29 02:45:00;;;;;;;4.72;3.15;;;16.20;99.90;;;;;;5050814;28;20084;-77
2023/09/29 02:47:26;;;;;;;7.90;4.13;;;16.20;99.90;;;;;;5046581;28;20037;-77
2023/09/29 02:49:53;;;;;;;6.53;4.10;;;16.20;99.90;;;;;;5047458;28;20041;-77
2023/09/29 02:52:20;;;;;;;5.43;2.67;;;16.20;99.90;;;;;;5039684;28;20044;-77
2023/09/29 02:54:48;;;;;;;4.88;3.10;;;16.20;99.90;;;;;;5046022;28;20045;-77
2023/09/29 02:57:15;;;;;;;5.20;2.90;;;16.10;99.90;;;;;;5042127;28;20049;-77
2023/09/29 02:59:42;;;;;;;6.18;3.33;;;16.10;99.90;;;;;;5051904;28;20136;-77
2023/09/29 03:02:09;;;;;;;3.72;2.60;;;16.10;99.90;;;;;;5045383;28;20503;-77
2023/09/29 03:04:39;;;;;;;5.22;2.97;;;16.10;99.90;;;;;;5046674;28;20563;-77
2023/09/29 03:07:06;;;;;;;5.13;2.88;;;16.10;99.90;;;;;;5037965;28;20067;-77
2023/09/29 03:09:33;;;;;;;7.35;2.70;;;16.00;99.90;;;;;;5044882;28;20499;-77
2023/09/29 03:12:00;;;;;;;7.25;3.20;;;16.00;99.90;;;;;;5040521;28;20069;-77
2023/09/29 03:14:27;;;;;;;3.85;2.70;;;16.00;99.90;;;;;;5049117;28;20073;-77
2023/09/29 03:16:54;;;;;;;6.20;3.05;;;16.00;99.90;;;;;;5043136;28;20401;-77
2023/09/29 03:19:21;;;;;;;4.78;2.78;;;16.00;99.90;;;;;;5028321;28;20045;-77
2023/09/29 03:21:48;;;;;;;5.95;2.58;;;16.00;99.90;;;;;;5038908;28;20049;-77
2023/09/29 03:24:15;;;;;;;6.72;2.63;;;16.00;99.90;;;;;;5044002;28;20136;-77
2023/09/29 03:26:42;;;;;;;4.38;2.90;;;15.90;99.90;;;;;;5044737;28;20214;-77
2023/09/29 03:29:09;;;;;;;4.32;2.60;;;15.90;99.90;;;;;;5049065;28;20510;-78
2023/09/29 03:31:35;;;;;;;4.30;2.80;;;15.90;99.90;;;;;;5045586;28;20087;-77
2023/09/29 03:34:02;;;;;;;4.22;2.88;;;15.90;99.90;;;;;;5046345;28;20045;-77
2023/09/29 03:36:30;;;;;;;3.88;2.65;;;15.90;99.90;;;;;;5037462;28;20068;-77
2023/09/29 03:38:59;;;;;;;6.35;2.78;;;15.90;99.90;;;;;;5042589;28;20092;-77
2023/09/29 03:41:26;;;;;;;4.10;2.72;;;15.90;99.90;;;;;;5049777;28;20067;-77
2023/09/29 03:43:52;;;;;;;3.67;2.55;;;15.80;99.90;;;;;;5049825;28;20497;-77
2023/09/29 03:46:20;;;;;;;4.80;2.58;;;15.80;99.90;;;;;;5042544;28;20077;-77
2023/09/29 03:48:47;;;;;;;4.32;2.67;;;15.80;99.90;;;;;;5047217;28;20049;-77
2023/09/29 03:51:24;;;;;;;4.95;2.80;;;15.70;99.90;;;;;;5036359;28;20508;-77
2023/09/29 03:53:55;;;;;;;8.00;3.33;;;15.80;99.90;;;;;;5048458;28;20115;-77
2023/09/29 03:56:25;;;;;;;5.03;2.72;;;15.70;99.90;;;;;;5035253;28;20416;-77
2023/09/29 03:58:55;;;;;;;;;;;15.70;99.90;;;;;;5041114;28;20048;-77
2023/09/29 04:01:23;;;;;;;5.93;2.78;;;15.80;99.90;;;;;;5041717;28;19920;-77
2023/09/29 04:03:49;;;;;;;4.90;2.60;;;15.70;99.90;;;;;;5046417;28;20111;-77
2023/09/29 04:06:16;;;;;;;3.58;3.05;;;15.70;99.90;;;;;;5034624;28;20056;-77
2023/09/29 04:08:43;;;;;;;5.28;2.70;;;15.70;99.90;;;;;;5046428;28;20423;-77
2023/09/29 04:11:10;;;;;;;5.90;2.95;;;15.70;99.90;;;;;;5047435;28;20084;-77
2023/09/29 04:13:37;;;;;;;4.47;3.13;;;15.70;99.90;;;;;;5046807;28;20121;-77
2023/09/29 04:16:08;;;;;;;9.98;3.25;;;15.60;99.90;;;;;;5041252;28;20045;-77
2023/09/29 04:18:35;;;;;;;4.53;3.45;;;15.60;99.90;;;;;;5043759;28;20044;-77
2023/09/29 04:21:02;;;;;;;3.58;2.90;;;15.60;99.90;;;;;;5036086;28;20042;-77
2023/09/29 04:23:29;;;;;;;6.20;3.15;;;15.60;99.90;;;;;;5046008;28;20055;-77
2023/09/29 04:25:56;;;;;;;5.10;3.25;;;15.60;99.90;;;;;;5048431;28;20646;-77
2023/09/29 04:28:23;;;;;;;8.48;3.25;;;15.60;99.90;;;;;;5045661;28;20504;-77
2023/09/29 04:30:50;;;;;;;4.72;3.47;;;15.60;99.90;;;;;;5041655;28;20050;-76
2023/09/29 04:33:18;;;;;;;5.20;2.92;;;15.60;99.90;;;;;;5044026;28;20048;-77
2023/09/29 04:35:45;;;;;;;4.30;2.97;;;15.60;99.90;;;;;;5035632;28;20045;-77
2023/09/29 04:38:12;;;;;;;5.07;2.95;;;15.60;99.90;;;;;;5046014;28;20052;-77
2023/09/29 04:40:39;;;;;;;6.75;3.40;;;15.60;99.90;;;;;;5046548;28;20053;-77
2023/09/29 04:43:06;;;;;;;4.90;2.80;;;15.60;99.90;;;;;;5046742;28;20045;-77
2023/09/29 04:45:33;;;;;;;5.63;2.85;;;15.60;99.90;;;;;;5038946;28;20049;-76
2023/09/29 04:48:01;;;;;;;5.32;3.15;;;15.60;99.90;;;;;;5041879;28;20040;-77
2023/09/29 04:50:29;;;;;;;5.70;3.25;;;15.70;99.90;;;;;;5030873;28;20042;-77
2023/09/29 04:52:56;;;;;;;5.30;2.80;;;15.70;99.90;;;;;;5041415;28;20053;-77
2023/09/29 04:55:23;;;;;;;6.20;3.13;;;15.70;99.90;;;;;;5033910;28;20056;-77
2023/09/29 04:57:52;;;;;;;8.32;3.10;;;15.70;99.90;;;;;;5047383;28;20144;-77
2023/09/29 05:00:19;;;;;;;6.43;3.30;;;15.80;99.90;;;;;;5038138;28;20049;-77
2023/09/29 05:02:47;;;;;;;6.63;3.03;;;15.80;99.90;;;;;;5045355;28;20050;-77
2023/09/29 05:05:14;;;;;;;5.43;3.25;;;15.80;99.90;;;;;;5035613;28;20045;-77
2023/09/29 05:07:43;;;;;;;6.57;2.92;;;15.90;99.90;;;;;;5046849;28;20054;-77
2023/09/29 05:10:11;;;;;;;5.63;3.35;;;15.90;99.90;;;;;;5044873;28;20128;-77
2023/09/29 05:12:37;;;;;;;5.00;3.20;;;15.90;99.90;;;;;;5044951;28;20050;-77
2023/09/29 05:15:05;;;;;;;7.38;3.25;;;15.90;99.90;;;;;;5038987;28;20072;-77
2023/09/29 05:17:32;;;;;;;4.75;2.78;;;15.90;99.90;;;;;;5045692;28;20044;-77
2023/09/29 05:20:16;;;;;;;6.38;2.97;;;15.90;99.90;;;;;;5046951;28;20052;-77
2023/09/29 05:22:43;;;;;;;8.10;3.10;;;16.00;99.90;;;;;;5053196;28;20050;-77
2023/09/29 05:25:10;;;;;;;5.82;2.60;;;16.00;99.90;;;;;;5047067;28;20570;-77
2023/09/29 05:27:36;;;;;;;7.20;3.38;;;15.90;99.90;;;;;;5047488;28;20053;-77
2023/09/29 05:30:04;;;;;;;4.75;2.88;;;15.90;99.90;;;;;;5038720;28;20057;-77
2023/09/29 05:32:31;;;;;;;6.47;3.38;;;15.90;99.90;;;;;;5046610;28;20046;-77
2023/09/29 05:34:58;;;;;;;8.23;3.70;;;15.90;99.90;;;;;;5048252;28;20049;-77
2023/09/29 05:37:25;;;;;;;9.63;3.65;;;15.90;99.90;;;;;;5051098;28;20045;-77
2023/09/29 05:39:52;;;;;;;5.18;3.20;;;15.90;99.90;;;;;;5047858;28;20084;-77
2023/09/29 05:42:21;;;;;;;7.82;3.30;;;15.90;99.90;;;;;;5047914;28;20543;-77
2023/09/29 05:44:59;;;;;;;9.30;3.33;;;16.00;99.90;;;;;;5040583;28;20045;-77
2023/09/29 05:47:26;;;;;;;7.72;3.47;;;16.00;99.90;;;;;;5045733;28;20045;-77
2023/09/29 05:49:53;;;;;;;5.00;2.90;;;16.00;99.90;;;;;;5046934;28;20122;-76
2023/09/29 05:52:40;;;;;;;4.72;2.95;;;16.00;99.90;;;;;;5049908;28;20045;-77
2023/09/29 05:55:13;;;;;;;9.65;3.75;;;16.00;99.90;;;;;;5044789;28;20129;-77
2023/09/29 05:57:40;;;;;;;6.85;3.17;;;16.00;99.90;;;;;;5045774;28;20053;-77
2023/09/29 06:00:07;;;;;;;3.88;2.53;;;16.10;99.90;;;;;;5038083;28;20107;-77
2023/09/29 06:02:35;;;;;;;3.50;2.55;;;16.10;99.90;;;;;;5043718;28;20558;-77
2023/09/29 06:05:02;;;;;;;6.65;2.53;;;16.10;99.90;;;;;;5051674;28;20048;-77
2023/09/29 06:07:28;;;;;;;5.40;2.90;;;16.20;99.90;;;;;;5049518;28;20085;-77
2023/09/29 06:09:55;;;;;;;7.68;3.13;;;16.20;99.90;;;;;;5036614;28;20050;-77
2023/09/29 06:12:22;;;;;;;3.72;2.65;;;16.20;99.90;;;;;;5045847;28;20049;-77
2023/09/29 06:14:48;;;;;;;10.63;2.72;;;16.20;99.90;;;;;;5039323;28;20081;-77
2023/09/29 06:17:15;;;;;;;7.82;2.47;;;16.30;99.90;;;;;;5051171;28;20045;-77
2023/09/29 06:19:42;;;;;;;3.35;2.38;;;16.30;99.90;;;;;;5048899;28;20126;-77
2023/09/29 06:22:09;;;;;;;4.30;2.72;;;16.30;99.90;;;;;;5050012;28;20106;-77
2023/09/29 06:24:35;;;;;;;7.63;2.92;;;16.40;99.90;;;;;;5042349;28;20102;-78
2023/09/29 06:27:02;;;;;;;4.88;2.95;;;16.40;99.90;;;;;;5048537;28;20098;-77
2023/09/29 06:29:29;;;;;;;3.53;2.63;;;16.50;99.90;;;;;;5036611;28;20041;-76
2023/09/29 06:31:56;;;;;;;4.40;2.88;;;16.60;99.90;;;;;;5051767;28;20095;-76
2023/09/29 06:34:23;;;;;;;4.82;2.45;;;16.70;99.90;;;;;;5045240;28;20041;-77
2023/09/29 06:36:49;;;;;;;4.80;2.42;;;16.70;99.90;;;;;;5038598;28;20053;-74
2023/09/29 06:39:16;;;;;;;5.05;2.95;;;16.80;99.90;;;;;;5042297;28;20053;-77
2023/09/29 06:41:43;;;;;;;8.23;2.45;;;16.90;99.90;;;;;;5045877;28;20076;-76
2023/09/29 06:44:10;;;;;;;5.47;2.70;;;17.00;99.90;;;;;;5037796;28;20522;-76
2023/09/29 06:46:36;;;;;;;4.40;2.55;;;17.20;99.90;;;;;;5047415;28;20095;-77
2023/09/29 06:49:04;;;;;;;6.15;2.67;;;17.20;99.90;;;;;;5050076;28;20050;-77
2023/09/29 06:51:31;;;;;;;5.68;2.25;;;17.30;99.90;;;;;;5044364;28;20132;-77
2023/09/29 06:53:57;;;;;;;5.65;2.53;;;17.40;99.90;;;;;;5042266;28;20137;-77
2023/09/29 06:56:24;;;;;;;4.82;2.40;;;17.50;99.90;;;;;;5044870;28;20515;-77
2023/09/29 06:58:51;;;;;;;6.10;2.40;;;17.60;99.90;;;;;;5038187;28;20498;-77
2023/09/29 07:01:18;;;;;;;4.35;2.95;;;17.70;99.90;;;;;;5039496;28;20463;-77
2023/09/29 07:03:48;;;;;;;4.53;3.03;;;17.70;99.90;;;;;;5046681;28;20056;-77
2023/09/29 07:06:15;;;;;;;6.05;3.15;;;17.90;99.90;;;;;;5046215;28;20048;-77
2023/09/29 07:08:42;;;;;;;4.47;2.83;;;17.90;99.90;;;;;;5034691;28;20040;-77
2023/09/29 07:11:09;;;;;;;5.18;2.95;;;18.00;99.90;;;;;;5044947;28;20040;-77
2023/09/29 07:13:35;;;;;;;6.18;2.95;;;18.10;99.90;;;;;;5038088;28;20076;-77
2023/09/29 07:16:03;;;;;;;4.35;2.70;;;18.10;99.90;;;;;;5048289;28;20485;-77
2023/09/29 07:18:30;;;;;;;3.90;2.60;;;18.20;99.90;;;;;;5046978;28;20641;-77
2023/09/29 07:20:57;;;;;;;5.32;3.05;;;18.30;99.90;;;;;;5047206;28;20062;-77
2023/09/29 07:23:24;;;;;;;3.00;2.22;;;18.40;99.90;;;;;;5040058;28;20107;-78
2023/09/29 07:25:52;;;;;;;3.55;2.30;;;18.40;99.90;;;;;;5050731;28;20482;-78
2023/09/29 07:28:22;;;;;;;4.38;2.10;;;18.50;99.90;;;;;;5043825;28;20041;-78
2023/09/29 07:30:52;;;;;;;4.90;2.65;;;18.60;99.90;;;;;;5038057;28;20121;-78
2023/09/29 07:33:19;;;;;;;4.53;2.35;;;18.70;99.90;;;;;;5048266;28;20045;-78
2023/09/29 07:35:46;;;;;;;6.30;2.50;;;18.80;99.90;;;;;;5048074;28;20107;-78
2023/09/29 07:38:13;;;;;;;5.55;2.72;;;18.80;99.90;;;;;;5039525;28;20049;-78
2023/09/29 07:40:40;;;;;;;5.00;2.20;;;18.90;99.90;;;;;;5047146;28;20057;-78
2023/09/29 07:43:07;;;;;;;6.50;2.78;;;19.00;99.90;;;;;;5041609;28;20123;-75
2023/09/29 07:45:34;;;;;;;3.72;2.40;;;19.10;99.90;;;;;;5031694;28;20562;-76
2023/09/29 07:48:01;;;;;;;3.60;2.25;;;19.20;99.90;;;;;;5046092;28;20500;-76
2023/09/29 07:50:28;;;;;;;3.55;2.35;;;19.30;99.90;;;;;;5047322;28;20043;-78
2023/09/29 07:52:54;;;;;;;4.75;3.10;;;19.50;99.90;;;;;;5025042;28;20071;-78
2023/09/29 07:55:22;;;;;;;4.63;2.35;;;19.60;99.90;;;;;;5042709;28;20037;-76
2023/09/29 07:57:51;;;;;;;4.30;2.42;;;19.80;99.90;;;;;;5044604;28;20053;-76
2023/09/29 08:00:17;;;;;;;5.10;2.40;;;20.00;99.90;;;;;;5047986;28;20047;-76
2023/09/29 08:02:45;;;;;;;3.42;2.25;;;20.20;99.90;;;;;;5042780;28;20453;-76
2023/09/29 08:05:12;;;;;;;4.65;2.30;;;20.40;99.90;;;;;;5029384;28;20049;-76
2023/09/29 08:07:40;;;;;;;3.25;2.17;;;20.50;99.90;;;;;;5037578;28;20049;-76
2023/09/29 08:10:08;;;;;;;5.65;2.35;;;20.60;99.90;;;;;;5042333;28;20091;-76
2023/09/29 08:12:36;;;;;;;3.08;2.10;;;20.70;99.90;;;;;;5047406;28;20068;-75
2023/09/29 08:15:08;;;;;;;5.57;2.63;;;20.90;99.90;;;;;;5049199;28;20045;-75
2023/09/29 08:17:34;;;;;;;6.70;2.45;;;20.90;99.90;;;;;;5040859;28;20050;-76
2023/09/29 08:20:05;;;;;;;2.70;2.05;;;21.00;99.90;;;;;;5046811;28;20111;-76
2023/09/29 08:22:32;;;;;;;2.97;1.73;;;21.00;99.90;;;;;;5036913;28;20133;-75
2023/09/29 08:25:10;;;;;;;5.55;2.30;;;21.00;99.90;;;;;;5043448;28;20049;-76
2023/09/29 08:27:38;;;;;;;3.83;2.20;;;21.00;99.90;;;;;;5047182;28;20049;-75
2023/09/29 08:30:06;;;;;;;4.35;2.38;;;21.00;99.90;;;;;;5048595;28;20049;-76
2023/09/29 08:32:37;;;;;;;3.93;2.47;;;21.10;99.90;;;;;;5045263;28;20045;-75
2023/09/29 08:35:05;;;;;;;4.00;2.50;;;21.10;99.90;;;;;;5044269;28;20433;-76
2023/09/29 08:37:32;;;;;;;5.00;2.47;;;21.10;99.90;;;;;;5036372;28;20077;-76
2023/09/29 08:39:59;;;;;;;3.00;1.98;;;21.10;99.90;;;;;;5022913;28;20060;-75
2023/09/29 08:42:36;;;;;;;4.60;2.88;;;21.10;99.90;;;;;;5047870;28;20492;-76
2023/09/29 08:45:11;;;;;;;5.95;2.28;;;21.20;99.90;;;;;;5038015;28;20054;-75
2023/09/29 08:47:40;;;;;;;2.67;2.03;;;21.20;99.90;;;;;;5040626;28;20050;-78
2023/09/29 08:50:11;;;;;;;7.28;2.10;;;21.20;99.90;;;;;;5048624;28;20046;-76
2023/09/29 08:52:44;;;;;;;4.50;2.60;;;21.20;99.90;;;;;;5039402;28;20048;-78
2023/09/29 08:55:12;;;;;;;3.45;2.42;;;21.30;99.90;;;;;;5057247;28;20052;-78
2023/09/29 08:57:43;;;;;;;4.45;2.50;;;21.30;99.90;;;;;;5051537;28;20038;-78
2023/09/29 09:00:14;;;;;;;5.07;2.65;;;21.20;99.90;;;;;;5053881;28;20049;-78
2023/09/29 09:02:44;;;;;;;3.60;2.28;;;21.30;99.90;;;;;;5045131;28;20080;-78
2023/09/29 09:05:12;;;;;;;5.13;2.03;;;21.30;99.90;;;;;;5050604;28;20072;-76
2023/09/29 09:07:40;;;;;;;6.20;2.00;;;21.30;99.90;;;;;;5038572;28;20045;-76
2023/09/29 09:10:09;;;;;;;3.03;2.20;;;21.30;99.90;;;;;;5053589;28;20056;-76
2023/09/29 09:12:48;;;;;;;3.40;2.10;;;21.30;99.90;;;;;;5048586;28;20487;-76
2023/09/29 09:15:23;;;;;;;6.20;2.42;;;21.40;99.90;;;;;;5051650;28;20546;-78
2023/09/29 09:17:50;;;;;;;3.75;2.20;;;21.40;99.90;;;;;;5041188;28;20049;-76
2023/09/29 09:20:18;;;;;;;5.30;2.35;;;21.50;99.90;;;;;;5048675;28;20048;-76
2023/09/29 09:22:57;;;;;;;4.50;2.67;;;21.50;99.90;;;;;;5038101;28;20100;-76
2023/09/29 09:25:31;;;;;;;4.47;2.42;;;21.50;99.90;;;;;;5037496;28;20055;-76
2023/09/29 09:27:59;;;;;;;2.92;2.00;;;21.60;99.90;;;;;;5048121;28;20140;-76
2023/09/29 09:30:25;;;;;;;5.97;2.28;;;21.60;99.90;;;;;;5047801;28;20599;-76
2023/09/29 09:32:52;;;;;;;5.65;2.50;;;21.60;99.90;;;;;;5040190;28;20053;-76
2023/09/29 09:35:27;;;;;;;6.18;2.88;;;21.70;99.90;;;;;;5047256;28;20079;-76
2023/09/29 09:37:55;;;;;;;4.97;2.70;;;21.70;99.90;;;;;;5043898;28;20048;-76
2023/09/29 09:40:26;;;;;;;3.70;2.58;;;21.70;99.90;;;;;;5046511;28;20051;-76
2023/09/29 09:42:54;;;;;;;6.40;2.88;;;21.80;99.90;;;;;;5046243;28;20136;-76
2023/09/29 09:45:29;;;;;;;10.52;2.40;;;21.90;99.90;;;;;;5047892;28;20136;-76
2023/09/29 09:47:58;;;;;;;5.95;2.45;;;21.90;99.90;;;;;;5039289;28;20053;-76
2023/09/29 09:50:30;;;;;;;4.78;2.40;;;21.90;99.90;;;;;;5044714;28;20041;-76
2023/09/29 09:52:59;;;;;;;3.92;2.35;;;22.00;99.90;;;;;;5052690;28;20045;-76
2023/09/29 09:55:52;;;;;;;3.90;2.10;;;22.00;99.90;;;;;;5045166;28;20059;-76
2023/09/29 09:58:22;;;;;;;6.60;2.55;;;22.10;99.90;;;;;;5046158;28;20079;-76
2023/09/29 10:00:54;;;;;;;4.68;2.75;;;22.20;99.90;;;;;;5042009;28;20069;-76
2023/09/29 10:03:23;;;;;;;3.60;2.53;;;22.20;99.90;;;;;;5040933;28;20102;-76
2023/09/29 10:05:53;;;;;;;4.40;2.60;;;22.30;99.90;;;;;;5047240;28;20041;-76
2023/09/29 10:08:31;;;;;;;7.35;2.72;;;22.30;99.90;;;;;;5053996;28;20047;-76
2023/09/29 10:11:15;;;;;;;6.13;2.60;;;22.30;99.90;;;;;;5045002;28;20523;-76
2023/09/29 10:13:44;;;;;;;5.38;2.70;;;22.30;99.90;;;;;;5045196;28;20046;-76
2023/09/29 10:16:24;;;;;;;4.43;2.42;;;22.40;99.90;;;;;;5041492;28;20068;-77
2023/09/29 10:18:58;;;;;;;5.60;2.30;;;22.40;99.90;;;;;;5046173;28;20146;-76
2023/09/29 10:21:33;;;;;;;3.65;2.83;;;22.40;99.90;;;;;;5051071;28;20068;-76
2023/09/29 10:24:00;;;;;;;4.68;2.53;;;22.40;99.90;;;;;;5047956;28;20045;-76
2023/09/29 10:26:28;;;;;;;6.80;2.65;;;22.50;99.90;;;;;;5044377;28;20056;-76
2023/09/29 10:29:04;;;;;;;5.35;2.45;;;22.50;99.90;;;;;;5047145;28;20464;-77
2023/09/29 10:31:31;;;;;;;5.93;2.85;;;22.50;99.90;;;;;;5033151;28;20069;-76
2023/09/29 10:33:58;;;;;;;6.60;2.55;;;22.60;99.90;;;;;;5045213;28;20047;-76
2023/09/29 10:36:28;;;;;;;6.93;2.60;;;22.60;99.90;;;;;;5051890;28;20041;-76
2023/09/29 10:38:59;;;;;;;4.50;2.50;;;22.60;99.90;;;;;;5048465;28;20168;-77
2023/09/29 10:41:31;;;;;;;7.50;3.05;;;22.60;99.90;;;;;;5045457;28;20084;-76
2023/09/29 10:44:04;;;;;;;7.25;2.55;;;22.70;99.90;;;;;;5047193;28;20425;-77
2023/09/29 10:46:31;;;;;;;5.43;3.13;;;22.70;99.90;;;;;;5037782;28;20060;-76
2023/09/29 10:48:58;;;;;;;8.50;3.50;;;22.80;99.90;;;;;;5049980;28;20547;-76
2023/09/29 10:51:28;;;;;;;9.27;3.13;;;22.80;99.90;;;;;;5050250;28;20451;-76
2023/09/29 10:53:59;;;;;;;5.43;2.77;;;22.90;99.90;;;;;;5047639;28;20479;-75
2023/09/29 10:56:26;;;;;;;13.38;3.55;;;23.00;99.90;;;;;;5043513;28;20048;-76
2023/09/29 10:58:55;;;;;;;7.88;3.00;;;23.10;99.90;;;;;;5045480;28;20049;-77
2023/09/29 11:01:35;;;;;;;4.47;2.50;;;23.10;99.90;;;;;;5037678;28;20049;-76
2023/09/29 11:04:05;;;;;;;7.95;2.70;;;23.10;99.90;;;;;;5048102;28;20056;-76
2023/09/29 11:06:39;;;;;;;;;;;23.10;99.90;;;;;;5046349;28;20123;-76
2023/09/29 11:09:07;;;;;;;7.25;3.33;;;23.20;99.90;;;;;;5045908;28;19960;-76
2023/09/29 11:11:36;;;;;;;5.63;2.80;;;23.20;99.90;;;;;;5039320;28;20545;-77
2023/09/29 11:14:06;;;;;;;6.00;2.40;;;23.40;99.90;;;;;;5043653;28;20045;-77
2023/09/29 11:16:33;;;;;;;4.15;2.50;;;23.40;99.90;;;;;;5035092;28;20042;-76
2023/09/29 11:19:10;;;;;;;5.57;3.00;;;23.40;99.90;;;;;;5046919;28;20053;-77
2023/09/29 11:21:39;;;;;;;4.22;2.95;;;23.50;99.90;;;;;;5047886;28;20048;-76
2023/09/29 11:24:09;;;;;;;5.13;2.80;;;23.60;99.90;;;;;;5043185;28;20096;-77
2023/09/29 11:26:46;;;;;;;7.80;2.78;;;23.70;99.90;;;;;;5042367;28;20041;-76
2023/09/29 11:29:23;;;;;;;5.30;2.47;;;23.80;99.90;;;;;;5044098;28;20052;-76
2023/09/29 11:31:53;;;;;;;12.23;3.45;;;23.90;99.90;;;;;;5041382;28;20044;-77
2023/09/29 11:34:21;;;;;;;4.78;2.40;;;24.00;99.90;;;;;;5049873;28;20046;-77
2023/09/29 11:36:49;;;;;;;6.50;2.58;;;24.10;99.90;;;;;;5045979;28;20045;-76
2023/09/29 11:39:18;;;;;;;7.03;2.42;;;24.10;99.90;;;;;;5044315;28;20084;-76
2023/09/29 11:41:46;;;;;;;4.95;2.17;;;24.10;99.90;;;;;;5040271;28;20044;-76
2023/09/29 11:44:14;;;;;;;6.05;2.45;;;24.20;99.90;;;;;;5043632;28;20088;-76
2023/09/29 11:46:41;;;;;;;6.65;2.70;;;24.30;99.90;;;;;;5047222;28;20114;-76
2023/09/29 11:49:07;;;;;;;4.68;1.80;;;24.30;99.90;;;;;;5045601;28;20060;-76
2023/09/29 11:51:37;;;;;;;3.55;2.00;;;24.30;99.90;;;;;;5046708;28;20117;-76
2023/09/29 11:54:04;;;;;;;7.32;2.58;;;24.30;99.90;;;;;;5041290;28;20045;-76
2023/09/29 11:56:31;;;;;;;4.30;2.22;;;24.30;99.90;;;;;;5041422;28;20048;-76
2023/09/29 11:58:58;;;;;;;9.00;2.40;;;24.20;99.90;;;;;;5042001;28;20084;-77
2023/09/29 12:01:26;;;;;;;5.90;2.25;;;24.30;99.90;;;;;;5052595;28;20052;-76
2023/09/29 12:03:54;;;;;;;3.97;2.30;;;24.30;99.90;;;;;;5044421;28;20049;-76
2023/09/29 12:06:22;;;;;;;4.68;2.38;;;24.30;99.90;;;;;;5046046;28;20111;-76
2023/09/29 12:08:48;;;;;;;3.33;2.03;;;24.30;99.90;;;;;;5043064;28;20053;-76
2023/09/29 12:11:19;;;;;;;4.90;2.40;;;24.40;99.90;;;;;;5038193;28;20053;-77
2023/09/29 12:13:47;;;;;;;4.43;2.05;;;24.40;99.90;;;;;;5042937;28;20041;-76
2023/09/29 12:16:15;;;;;;;5.88;2.00;;;24.40;99.90;;;;;;5030894;28;20048;-76
2023/09/29 12:18:42;;;;;;;4.10;2.30;;;24.50;99.90;;;;;;5045796;28;20049;-77
2023/09/29 12:21:10;;;;;;;8.95;2.05;;;24.50;99.90;;;;;;5042722;28;20055;-76
2023/09/29 12:23:39;;;;;;;5.10;2.08;;;24.50;99.90;;;;;;5042445;28;20108;-76
2023/09/29 12:26:06;;;;;;;3.92;2.67;;;24.50;99.90;;;;;;5034680;28;20084;-76
2023/09/29 12:28:35;;;;;;;7.05;2.20;;;24.50;99.90;;;;;;5046107;28;20040;-76
2023/09/29 12:31:02;;;;;;;6.95;2.05;;;24.60;99.90;;;;;;5047586;28;20045;-76
2023/09/29 12:33:29;;;;;;;6.15;2.20;;;24.60;99.90;;;;;;5047172;28;20044;-76
2023/09/29 12:35:56;;;;;;;4.68;2.67;;;24.60;99.90;;;;;;5040966;28;20073;-77
2023/09/29 12:38:23;;;;;;;3.47;2.15;;;24.60;99.90;;;;;;5044376;28;20057;-76
2023/09/29 12:40:50;;;;;;;4.32;1.92;;;24.60;99.90;;;;;;5038232;28;20091;-77
2023/09/29 12:43:17;;;;;;;3.85;1.83;;;24.70;99.90;;;;;;5048418;28;20056;-77
2023/09/29 12:45:44;;;;;;;5.63;1.95;;;24.60;99.90;;;;;;5050120;28;20064;-77
2023/09/29 12:48:11;;;;;;;9.27;2.28;;;24.70;99.90;;;;;;5043362;28;20049;-76
2023/09/29 12:50:39;;;;;;;9.40;2.20;;;24.70;99.90;;;;;;5043708;28;20053;-77
2023/09/29 12:53:06;;;;;;;3.67;2.10;;;24.70;99.90;;;;;;5041919;28;20052;-76
2023/09/29 12:55:33;;;;;;;4.93;1.80;;;24.70;99.90;;;;;;5038122;28;20071;-77